createdAt,value
2018-12-23T00:00:30.278Z,9.40
2018-12-23T00:02:58.670Z,7.97
2018-12-23T00:05:27.096Z,8.10
2018-12-23T00:07:55.519Z,8.33
2018-12-23T00:10:23.958Z,9.00
2018-12-23T00:12:52.366Z,9.40
2018-12-23T00:15:21.017Z,9.17
2018-12-23T00:17:49.458Z,9.13
2018-12-23T00:20:17.948Z,9.13
2018-12-23T00:22:46.365Z,10.40
2018-12-23T00:25:14.814Z,9.70
2018-12-23T00:27:43.209Z,10.80
2018-12-23T00:30:11.651Z,8.93
2018-12-23T00:32:40.087Z,8.63
2018-12-23T00:35:08.487Z,9.03
2018-12-23T00:37:37.015Z,10.53
2018-12-23T00:40:06.148Z,8.77
2018-12-23T00:42:34.675Z,11.00
2018-12-23T00:45:03.109Z,9.80
2018-12-23T00:47:31.504Z,10.53
2018-12-23T00:49:59.996Z,8.97
2018-12-23T00:52:28.381Z,8.87
2018-12-23T00:54:56.784Z,8.50
2018-12-23T00:57:25.172Z,9.90
2018-12-23T00:59:53.603Z,10.33
2018-12-23T01:02:22.155Z,13.43
2018-12-23T01:04:50.559Z,10.20
2018-12-23T01:07:19.058Z,10.43
2018-12-23T01:09:47.427Z,9.27
2018-12-23T01:12:15.861Z,8.53
2018-12-23T01:14:44.267Z,11.47
2018-12-23T01:17:12.714Z,9.43
2018-12-23T01:19:41.182Z,8.57
2018-12-23T01:22:09.591Z,8.57
2018-12-23T01:24:38.003Z,9.47
2018-12-23T01:27:06.456Z,11.73
2018-12-23T01:29:34.870Z,9.60
2018-12-23T01:32:03.380Z,9.20
2018-12-23T01:34:37.015Z,11.20
2018-12-23T01:37:02.190Z,10.07
2018-12-23T01:39:31.124Z,10.10
2018-12-23T01:41:59.509Z,9.33
2018-12-23T01:44:27.920Z,10.50
2018-12-23T01:46:56.296Z,9.83
2018-12-23T01:49:24.697Z,11.53
2018-12-23T01:51:53.124Z,9.97
2018-12-23T01:54:21.517Z,9.00
2018-12-23T01:56:49.945Z,12.53
2018-12-23T01:59:18.333Z,10.10
2018-12-23T02:01:46.766Z,10.40
2018-12-23T02:04:15.150Z,9.73
2018-12-23T02:06:43.568Z,10.30
2018-12-23T02:09:11.980Z,10.67
2018-12-23T02:11:40.380Z,9.53
2018-12-23T02:14:08.793Z,10.33
2018-12-23T02:16:37.213Z,9.83
2018-12-23T02:19:05.600Z,11.50
2018-12-23T02:21:34.074Z,13.00
2018-12-23T02:24:02.487Z,9.97
2018-12-23T02:26:30.928Z,10.73
2018-12-23T02:28:59.307Z,10.90
2018-12-23T02:31:27.711Z,11.60
2018-12-23T02:33:56.114Z,10.90
2018-12-23T02:36:24.634Z,10.13
2018-12-23T02:38:53.024Z,9.13
2018-12-23T02:41:21.434Z,9.73
2018-12-23T02:43:49.845Z,11.07
2018-12-23T02:46:18.255Z,8.87
2018-12-23T02:48:46.656Z,9.30
2018-12-23T02:51:15.090Z,8.10
2018-12-23T02:53:43.507Z,8.30
2018-12-23T02:56:11.927Z,10.10
2018-12-23T02:58:40.317Z,9.50
2018-12-23T03:01:08.732Z,8.10
2018-12-23T03:03:37.627Z,8.53
2018-12-23T03:06:06.503Z,9.67
2018-12-23T03:08:35.128Z,10.27
2018-12-23T03:11:03.580Z,9.87
2018-12-23T03:13:32.062Z,9.37
2018-12-23T03:16:00.449Z,9.97
2018-12-23T03:18:28.852Z,8.10
2018-12-23T03:20:57.262Z,7.57
2018-12-23T03:23:25.697Z,8.43
2018-12-23T03:25:54.105Z,8.37
2018-12-23T03:28:22.528Z,8.60
2018-12-23T03:30:50.919Z,9.03
2018-12-23T03:33:19.353Z,7.83
2018-12-23T03:35:47.767Z,8.20
2018-12-23T03:38:16.297Z,7.90
2018-12-23T03:40:44.682Z,6.87
2018-12-23T03:43:13.178Z,8.07
2018-12-23T03:45:42.670Z,7.07
2018-12-23T03:48:11.070Z,7.80
2018-12-23T03:50:39.439Z,7.97
2018-12-23T03:53:07.960Z,8.13
2018-12-23T03:55:36.341Z,8.60
2018-12-23T03:58:04.902Z,7.27
2018-12-23T04:00:33.298Z,7.93
2018-12-23T04:03:01.697Z,7.70
2018-12-23T04:05:30.085Z,8.00
2018-12-23T04:07:58.471Z,7.10
2018-12-23T04:10:26.883Z,7.47
2018-12-23T04:12:55.282Z,7.57
2018-12-23T04:15:23.678Z,6.33
2018-12-23T04:17:52.141Z,6.93
2018-12-23T04:20:20.532Z,6.37
2018-12-23T04:22:48.919Z,7.20
2018-12-23T04:25:17.322Z,6.07
2018-12-23T04:27:45.707Z,8.73
2018-12-23T04:30:14.109Z,6.40
2018-12-23T04:32:42.500Z,8.63
2018-12-23T04:35:10.941Z,7.20
2018-12-23T04:37:39.375Z,7.80
2018-12-23T04:40:07.942Z,5.30
2018-12-23T04:42:36.350Z,7.63
2018-12-23T04:45:04.920Z,7.20
2018-12-23T04:47:33.334Z,6.60
2018-12-23T04:50:01.842Z,8.10
2018-12-23T04:52:30.235Z,8.33
2018-12-23T04:54:58.643Z,8.17
2018-12-23T04:57:27.040Z,9.07
2018-12-23T04:59:55.500Z,7.10
2018-12-23T05:02:23.918Z,8.50
2018-12-23T05:04:52.326Z,9.13
2018-12-23T05:07:20.744Z,11.00
2018-12-23T05:09:49.158Z,7.87
2018-12-23T05:12:17.560Z,8.50
2018-12-23T05:14:45.948Z,8.60
2018-12-23T05:17:14.359Z,8.30
2018-12-23T05:19:42.763Z,7.90
2018-12-23T05:22:11.154Z,7.90
2018-12-23T05:24:39.542Z,7.93
2018-12-23T05:27:07.952Z,7.50
2018-12-23T05:29:36.351Z,7.20
2018-12-23T05:32:04.782Z,7.07
2018-12-23T05:34:33.168Z,6.70
2018-12-23T05:37:01.835Z,6.30
2018-12-23T05:39:30.256Z,8.00
2018-12-23T05:41:58.685Z,6.83
2018-12-23T05:44:27.075Z,6.93
2018-12-23T05:46:55.460Z,6.67
2018-12-23T05:49:23.871Z,5.63
2018-12-23T05:51:52.259Z,5.83
2018-12-23T05:54:20.656Z,7.60
2018-12-23T05:56:49.130Z,5.37
2018-12-23T05:59:17.536Z,6.20
2018-12-23T06:01:45.928Z,6.30
2018-12-23T06:04:14.375Z,4.80
2018-12-23T06:06:42.839Z,5.73
2018-12-23T06:09:11.227Z,6.47
2018-12-23T06:11:39.586Z,4.40
2018-12-23T06:14:07.991Z,4.77
2018-12-23T06:16:36.399Z,4.83
2018-12-23T06:19:04.948Z,5.10
2018-12-23T06:21:33.371Z,5.77
2018-12-23T06:24:01.783Z,4.80
2018-12-23T06:26:30.170Z,4.37
2018-12-23T06:28:58.600Z,4.97
2018-12-23T06:31:26.987Z,6.10
2018-12-23T06:33:55.396Z,4.63
2018-12-23T06:36:23.895Z,4.80
2018-12-23T06:38:52.292Z,4.07
2018-12-23T06:41:20.679Z,4.40
2018-12-23T06:43:49.109Z,4.30
2018-12-23T06:46:17.537Z,3.67
2018-12-23T06:48:45.977Z,4.83
2018-12-23T06:51:14.440Z,5.03
2018-12-23T06:53:42.852Z,4.27
2018-12-23T06:56:11.253Z,4.93
2018-12-23T06:58:39.635Z,5.07
2018-12-23T07:01:08.024Z,6.30
2018-12-23T07:03:36.434Z,6.47
2018-12-23T07:07:29.271Z,4.80
2018-12-23T07:09:57.683Z,4.90
2018-12-23T07:12:26.109Z,4.03
2018-12-23T07:14:54.524Z,5.57
2018-12-23T07:17:22.928Z,4.73
2018-12-23T07:19:51.442Z,6.47
2018-12-23T07:22:19.832Z,4.90
2018-12-23T07:24:48.259Z,5.63
2018-12-23T07:27:16.707Z,8.27
2018-12-23T07:29:45.173Z,6.57
2018-12-23T07:32:13.545Z,4.70
2018-12-23T07:34:41.958Z,6.03
2018-12-23T07:37:10.357Z,5.60
2018-12-23T07:39:38.832Z,6.83
2018-12-23T07:42:07.252Z,5.33
2018-12-23T07:44:35.778Z,4.87
2018-12-23T07:47:04.343Z,5.87
2018-12-23T07:49:32.710Z,5.50
2018-12-23T07:52:01.116Z,7.70
2018-12-23T07:54:29.563Z,4.60
2018-12-23T07:56:57.930Z,5.43
2018-12-23T07:59:26.326Z,5.07
2018-12-23T08:01:54.718Z,5.10
2018-12-23T08:04:23.112Z,6.60
2018-12-23T08:06:51.544Z,5.17
2018-12-23T08:09:19.922Z,4.97
2018-12-23T08:11:54.866Z,6.07
2018-12-23T08:14:23.255Z,5.23
2018-12-23T08:16:51.864Z,5.57
2018-12-23T08:19:26.854Z,5.20
2018-12-23T08:21:55.256Z,3.93
2018-12-23T08:24:23.676Z,4.03
2018-12-23T08:26:52.086Z,5.30
2018-12-23T08:29:20.489Z,4.70
2018-12-23T08:31:48.927Z,5.87
2018-12-23T08:34:17.347Z,5.37
2018-12-23T08:36:45.748Z,5.23
2018-12-23T08:39:14.182Z,5.97
2018-12-23T08:41:42.599Z,5.77
2018-12-23T08:44:10.993Z,5.60
2018-12-23T08:46:39.556Z,7.13
2018-12-23T08:49:08.030Z,10.30
2018-12-23T08:51:36.484Z,7.43
2018-12-23T08:54:04.876Z,5.30
2018-12-23T08:56:33.317Z,6.10
2018-12-23T08:59:01.736Z,6.27
2018-12-23T09:01:30.179Z,6.73
2018-12-23T09:03:58.567Z,5.90
2018-12-23T09:06:26.980Z,5.43
2018-12-23T09:08:55.430Z,6.40
2018-12-23T09:11:23.812Z,6.60
2018-12-23T09:13:52.249Z,6.23
2018-12-23T09:16:20.641Z,6.70
2018-12-23T09:18:49.035Z,5.67
2018-12-23T09:21:17.540Z,5.67
2018-12-23T09:23:45.930Z,5.23
2018-12-23T09:26:14.356Z,6.40
2018-12-23T09:28:42.742Z,4.63
2018-12-23T09:31:11.186Z,5.47
2018-12-23T09:33:39.606Z,4.57
2018-12-23T09:36:08.036Z,5.87
2018-12-23T09:38:36.452Z,5.00
2018-12-23T09:41:04.857Z,5.77
2018-12-23T09:43:33.325Z,5.00
2018-12-23T09:46:01.702Z,6.70
2018-12-23T09:49:17.974Z,4.63
2018-12-23T09:55:00.766Z,7.10
2018-12-23T09:57:49.497Z,7.40
2018-12-23T10:04:20.668Z,7.83
2018-12-23T10:07:09.354Z,6.73
2018-12-23T10:09:58.033Z,6.27
2018-12-23T10:12:46.945Z,7.50
2018-12-23T10:21:26.034Z,4.50
2018-12-23T10:27:42.522Z,4.57
2018-12-23T10:30:30.337Z,5.07
2018-12-23T10:36:07.801Z,4.23
2018-12-23T10:43:12.061Z,6.87
2018-12-23T10:49:28.276Z,3.80
2018-12-23T10:52:16.397Z,4.90
2018-12-23T10:58:46.348Z,3.50
2018-12-23T11:01:35.007Z,3.53
2018-12-23T11:04:23.722Z,4.70
2018-12-23T11:07:12.403Z,3.60
2018-12-23T11:10:18.513Z,4.33
2018-12-23T11:13:07.189Z,4.80
2018-12-23T11:19:23.706Z,4.70
2018-12-23T11:22:12.355Z,5.13
2018-12-23T11:25:12.733Z,5.67
2018-12-23T11:27:42.509Z,5.10
2018-12-23T11:30:12.244Z,6.10
2018-12-23T11:32:42.015Z,5.90
2018-12-23T11:35:11.817Z,5.20
2018-12-23T11:37:41.632Z,5.30
2018-12-23T11:40:11.392Z,5.63
2018-12-23T11:42:41.143Z,14.57
2018-12-23T11:45:10.871Z,5.43
2018-12-23T11:47:40.690Z,6.43
2018-12-23T11:50:10.433Z,4.07
2018-12-23T11:52:40.202Z,5.20
2018-12-23T11:55:09.936Z,4.67
2018-12-23T11:57:39.712Z,4.73
2018-12-23T12:00:09.506Z,5.13
2018-12-23T12:02:39.273Z,3.97
2018-12-23T12:05:09.048Z,5.57
2018-12-23T12:07:38.878Z,3.90
2018-12-23T12:10:08.674Z,5.67
2018-12-23T12:12:38.460Z,4.70
2018-12-23T12:15:08.257Z,4.27
2018-12-23T12:17:38.104Z,5.00
2018-12-23T12:20:08.147Z,4.00
2018-12-23T12:22:37.934Z,4.07
2018-12-23T12:25:07.775Z,4.00
2018-12-23T12:27:37.550Z,3.50
2018-12-23T12:30:07.391Z,3.90
2018-12-23T12:32:37.568Z,3.30
2018-12-23T12:35:07.463Z,3.73
2018-12-23T12:37:37.195Z,4.23
2018-12-23T12:40:07.585Z,3.33
2018-12-23T12:42:37.380Z,3.40
2018-12-23T12:45:07.504Z,3.33
2018-12-23T12:47:37.258Z,3.97
2018-12-23T12:50:07.200Z,4.67
2018-12-23T12:52:36.924Z,3.50
2018-12-23T12:55:06.782Z,3.30
2018-12-23T12:57:36.501Z,2.90
2018-12-23T13:00:06.659Z,3.57
2018-12-23T13:02:36.416Z,4.10
2018-12-23T13:05:06.178Z,2.33
2018-12-23T13:07:36.341Z,2.80
2018-12-23T13:10:06.231Z,2.60
2018-12-23T13:12:35.991Z,12.43
2018-12-23T13:15:05.875Z,3.90
2018-12-23T13:17:36.012Z,1.97
2018-12-23T13:20:06.417Z,2.50
2018-12-23T13:22:36.149Z,2.10
2018-12-23T13:25:05.957Z,2.80
2018-12-23T13:27:35.667Z,2.37
2018-12-23T13:30:05.550Z,2.23
2018-12-23T13:32:36.455Z,2.17
2018-12-23T13:35:06.307Z,2.33
2018-12-23T13:37:36.057Z,2.50
2018-12-23T13:40:13.829Z,2.40
2018-12-23T13:43:28.513Z,3.50
2018-12-23T13:46:44.440Z,2.70
2018-12-23T13:49:47.985Z,2.23
2018-12-23T13:52:46.549Z,1.30
2018-12-23T13:56:15.592Z,1.20
2018-12-23T13:59:13.034Z,2.30
2018-12-23T14:02:19.372Z,2.27
2018-12-23T14:05:39.109Z,2.03
2018-12-23T14:08:29.787Z,2.00
2018-12-23T14:11:34.549Z,2.30
2018-12-23T14:14:04.296Z,2.20
2018-12-23T14:16:34.063Z,2.30
2018-12-23T14:19:03.804Z,1.70
2018-12-23T14:21:33.652Z,2.00
2018-12-23T14:24:03.520Z,2.30
2018-12-23T14:26:33.266Z,1.57
2018-12-23T14:29:03.052Z,1.57
2018-12-23T14:31:32.813Z,1.20
2018-12-23T14:34:02.861Z,1.10
2018-12-23T14:36:32.672Z,1.10
2018-12-23T14:39:02.403Z,1.80
2018-12-23T14:41:32.494Z,1.47
2018-12-23T14:44:02.232Z,1.60
2018-12-23T14:46:32.116Z,1.60
2018-12-23T14:49:01.871Z,1.30
2018-12-23T14:51:31.965Z,1.13
2018-12-23T14:54:01.720Z,2.20
2018-12-23T14:56:31.492Z,1.30
2018-12-23T14:59:01.306Z,3.20
2018-12-23T15:01:31.108Z,3.23
2018-12-23T15:04:00.893Z,3.00
2018-12-23T15:06:30.633Z,3.40
2018-12-23T15:09:00.545Z,2.10
2018-12-23T15:11:30.357Z,2.07
2018-12-23T15:14:00.101Z,2.00
2018-12-23T15:16:29.837Z,2.27
2018-12-23T15:19:00.694Z,2.10
2018-12-23T15:21:30.502Z,1.70
2018-12-23T15:24:00.319Z,2.77
2018-12-23T15:26:30.092Z,1.90
2018-12-23T15:28:59.842Z,1.40
2018-12-23T15:31:29.550Z,1.67
2018-12-23T15:33:59.280Z,1.90
2018-12-23T15:36:29.017Z,2.10
2018-12-23T15:38:58.785Z,2.73
2018-12-23T15:41:28.517Z,4.60
2018-12-23T15:43:58.271Z,3.97
2018-12-23T15:46:28.093Z,4.10
2018-12-23T15:48:58.114Z,2.93
2018-12-23T15:51:27.857Z,2.47
2018-12-23T15:53:57.618Z,2.50
2018-12-23T15:56:27.384Z,2.50
2018-12-23T15:58:57.115Z,2.60
2018-12-23T16:01:26.936Z,3.47
2018-12-23T16:03:56.654Z,4.80
2018-12-23T16:06:26.434Z,3.37
2018-12-23T16:08:56.232Z,4.13
2018-12-23T16:11:26.280Z,2.90
2018-12-23T16:13:56.284Z,4.43
2018-12-23T16:16:26.018Z,6.00
2018-12-23T16:18:55.786Z,4.13
2018-12-23T16:21:25.516Z,4.27
2018-12-23T16:23:55.266Z,3.40
2018-12-23T16:26:25.043Z,3.80
2018-12-23T16:28:54.861Z,3.60
2018-12-23T16:31:24.614Z,4.03
2018-12-23T16:33:54.381Z,4.50
2018-12-23T16:36:24.184Z,5.50
2018-12-23T16:38:53.974Z,4.37
2018-12-23T16:41:23.841Z,4.80
2018-12-23T16:43:53.648Z,5.20
2018-12-23T16:46:23.883Z,7.57
2018-12-23T16:48:54.244Z,6.20
2018-12-23T16:51:24.158Z,7.43
2018-12-23T16:53:54.078Z,9.33
2018-12-23T16:56:23.838Z,8.50
2018-12-23T16:58:53.571Z,10.10
2018-12-23T17:01:23.326Z,10.23
2018-12-23T17:03:53.065Z,10.87
2018-12-23T17:06:22.814Z,11.67
2018-12-23T17:08:52.689Z,12.13
2018-12-23T17:11:22.488Z,13.07
2018-12-23T17:13:52.677Z,14.30
2018-12-23T17:16:22.393Z,14.50
2018-12-23T17:18:52.170Z,14.63
2018-12-23T17:21:21.896Z,14.40
2018-12-23T17:23:51.708Z,15.53
2018-12-23T17:26:21.664Z,13.43
2018-12-23T17:28:51.377Z,15.70
2018-12-23T17:31:21.148Z,14.13
2018-12-23T17:33:51.279Z,13.17
2018-12-23T17:36:21.033Z,13.80
2018-12-23T17:38:50.766Z,13.30
2018-12-23T17:41:20.540Z,15.63
2018-12-23T17:43:50.367Z,14.47
2018-12-23T17:46:20.104Z,12.60
2018-12-23T17:48:50.613Z,12.83
2018-12-23T17:51:20.370Z,12.90
2018-12-23T17:53:50.127Z,13.23
2018-12-23T17:56:19.836Z,12.03
2018-12-23T17:58:49.625Z,12.73
2018-12-23T18:01:19.421Z,10.43
2018-12-23T18:03:49.257Z,10.07
2018-12-23T18:06:18.970Z,12.27
2018-12-23T18:08:48.884Z,11.23
2018-12-23T18:11:18.703Z,12.73
2018-12-23T18:13:48.542Z,9.80
2018-12-23T18:16:18.694Z,11.37
2018-12-23T18:18:48.510Z,9.43
2018-12-23T18:21:18.254Z,10.80
2018-12-23T18:23:48.101Z,10.70
2018-12-23T18:26:17.833Z,10.40
2018-12-23T18:28:47.592Z,10.03
2018-12-23T18:31:17.338Z,9.97
2018-12-23T18:33:47.094Z,9.43
2018-12-23T18:36:16.879Z,10.70
2018-12-23T18:38:46.959Z,8.33
2018-12-23T18:41:16.738Z,9.47
2018-12-23T18:43:46.506Z,9.80
2018-12-23T18:46:16.277Z,10.27
2018-12-23T18:48:46.008Z,8.63
2018-12-23T18:51:15.777Z,9.33
2018-12-23T18:53:45.573Z,9.07
2018-12-23T18:56:15.314Z,9.27
2018-12-23T18:58:45.164Z,7.33
2018-12-23T19:01:15.673Z,8.20
2018-12-23T19:03:45.441Z,7.20
2018-12-23T19:06:15.238Z,8.43
2018-12-23T19:09:08.291Z,6.80
2018-12-23T19:12:10.802Z,7.43
2018-12-23T19:15:33.810Z,6.50
2018-12-23T19:18:40.503Z,8.60
2018-12-23T19:21:57.573Z,5.93
2018-12-23T19:25:00.410Z,5.13
2018-12-23T19:28:23.109Z,9.87
2018-12-23T19:31:42.909Z,7.10
2018-12-23T19:34:49.332Z,4.50
2018-12-23T19:38:06.113Z,4.27
2018-12-23T19:41:08.887Z,5.20
2018-12-23T19:44:18.063Z,4.50
2018-12-23T19:47:36.083Z,3.80
2018-12-23T19:50:40.567Z,3.20
2018-12-23T19:53:55.860Z,3.67
2018-12-23T19:57:20.947Z,3.37
2018-12-23T20:00:37.993Z,2.40
2018-12-23T20:03:33.075Z,3.63
2018-12-23T20:06:56.445Z,3.50
2018-12-23T20:09:48.834Z,3.53
2018-12-23T20:12:56.457Z,3.33
2018-12-23T20:15:51.493Z,3.00
2018-12-23T20:18:58.163Z,2.73
2018-12-23T20:22:12.151Z,2.90
2018-12-23T20:25:20.534Z,2.97
2018-12-23T20:28:29.892Z,3.37
2018-12-23T20:31:20.905Z,2.37
2018-12-23T20:34:40.661Z,1.97
2018-12-23T20:37:49.847Z,2.50
2018-12-23T20:41:08.413Z,3.10
2018-12-23T20:44:43.473Z,2.10
2018-12-23T20:47:38.938Z,1.50
2018-12-23T20:50:48.640Z,1.53
2018-12-23T20:53:46.049Z,1.60
2018-12-23T20:57:06.149Z,1.63
2018-12-23T21:00:37.825Z,2.00
2018-12-23T21:03:47.448Z,1.30
2018-12-23T21:07:09.676Z,1.60
2018-12-23T21:10:14.117Z,2.70
2018-12-23T21:13:30.578Z,2.37
2018-12-23T21:16:24.114Z,2.73
2018-12-23T21:19:17.555Z,2.90
2018-12-23T21:22:18.330Z,3.43
2018-12-23T21:25:34.553Z,3.17
2018-12-23T21:28:47.698Z,3.20
2018-12-23T21:31:42.801Z,3.53
2018-12-23T21:34:52.043Z,3.27
2018-12-23T21:38:12.002Z,3.50
2018-12-23T21:41:10.085Z,4.17
2018-12-23T21:44:00.630Z,4.97
2018-12-23T21:47:21.209Z,4.40
2018-12-23T21:50:17.861Z,3.60
2018-12-23T21:53:46.561Z,4.30
2018-12-23T21:57:12.006Z,3.17
2018-12-23T22:00:15.905Z,4.03
2018-12-23T22:03:19.396Z,3.70
2018-12-23T22:06:25.832Z,1.93
2018-12-23T22:09:38.705Z,2.07
2018-12-23T22:13:16.753Z,2.40
2018-12-23T22:15:46.545Z,3.00
2018-12-23T22:18:16.330Z,1.97
2018-12-23T22:20:46.100Z,2.20
2018-12-23T22:23:16.284Z,2.07
2018-12-23T22:25:46.150Z,1.30
2018-12-23T22:28:15.869Z,1.40
2018-12-23T22:30:45.644Z,1.30
2018-12-23T22:33:15.374Z,1.57
2018-12-23T22:35:46.782Z,2.07
2018-12-23T22:38:19.668Z,2.00
2018-12-23T22:40:59.184Z,2.37
2018-12-23T22:43:28.997Z,2.10
2018-12-23T22:45:58.831Z,3.00
2018-12-23T22:48:28.618Z,3.20
2018-12-23T22:50:58.860Z,2.50
2018-12-23T22:53:28.661Z,2.77
2018-12-23T22:55:58.500Z,3.80
2018-12-23T22:58:28.532Z,3.40
2018-12-23T23:00:58.273Z,3.90
2018-12-23T23:03:28.502Z,3.90
2018-12-23T23:05:58.385Z,4.20
2018-12-23T23:08:28.182Z,4.73
2018-12-23T23:10:57.894Z,4.83
2018-12-23T23:13:27.996Z,5.93
2018-12-23T23:15:57.732Z,4.80
2018-12-23T23:18:27.581Z,6.30
2018-12-23T23:20:57.336Z,7.00
2018-12-23T23:23:27.075Z,5.70
2018-12-23T23:25:56.884Z,6.90
2018-12-23T23:28:26.645Z,7.63
2018-12-23T23:30:56.430Z,8.50
2018-12-23T23:33:26.143Z,8.03
2018-12-23T23:35:56.311Z,7.13
2018-12-23T23:38:26.036Z,6.33
2018-12-23T23:40:55.757Z,5.07
2018-12-23T23:43:25.477Z,5.73
2018-12-23T23:45:55.203Z,5.87
2018-12-23T23:48:24.914Z,8.53
2018-12-23T23:50:54.654Z,7.17
2018-12-23T23:53:24.361Z,6.60
2018-12-23T23:55:54.129Z,7.00
2018-12-23T23:58:24.137Z,6.87
